Latest Weather Observations for Noonamah

IDD60801

Issued at 6:01 pm CST Thursday 19 January 2017 (issued every 30 minutes, with the page automatically refreshed every 10 minutes)

About weather observations | Map of weather stations | Latest weather observations for NT | Other Formats
Station Details ID: 014314 Name: NOONAMAH AIRSTRIP Lat: -12.61 Lon: 131.05 Height: 17.5 m
Data from the previous 72 hours. | See also: Recent months at Noonamah
Date/Time
CST
Temp
°C
App
Temp
°C
Dew
Point
°C
Rel
Hum
%
Delta-T
°C
Wind Press
QNH
hPa
Press
MSL
hPa
Rain since
9am
mm
Dir  Spd
km/h
Gust
km/h
Spd
kts
Gust
kts
19/06:00pm 28.2 33.3 24.6 81 2.5 NW 6 9 3 5 1006.6 1006.4 0.2
19/05:30pm 28.3 32.6 24.3 79 2.8 NW 9 19 5 10 1006.6 1006.4 0.2
19/05:00pm 28.8 32.1 23.9 75 3.4 WNW 13 26 7 14 1006.5 1006.3 0.2
19/04:30pm 30.6 33.2 23.3 65 5.0 WNW 15 26 8 14 1006.3 1006.1 0.2
19/04:00pm 31.6 34.2 24.0 64 5.3 WNW 17 30 9 16 1006.3 1006.1 0.2
19/03:30pm 31.7 34.2 23.2 60 5.9 NW 15 24 8 13 1006.7 1006.5 0.2
19/03:00pm 32.1 35.6 23.6 60 5.9 NW 11 24 6 13 1007.0 1006.8 0.2
19/02:30pm 32.1 36.2 23.3 59 6.1 WNW 7 17 4 9 1007.3 1007.1 0.2
19/02:00pm 32.1 36.2 23.9 62 5.7 NW 9 13 5 7 1008.0 1007.8 0.2
19/01:30pm 31.8 35.9 23.9 63 5.5 WNW 9 17 5 9 1008.4 1008.2 0.2
19/01:00pm 30.9 34.7 23.5 64 5.1 WNW 9 17 5 9 1008.7 1008.5 0.2
19/12:30pm 30.7 34.5 23.4 65 5.0 WSW 9 15 5 8 1009.2 1009.0 0.2
19/12:00pm 30.8 35.7 24.4 68 4.5 SW 6 11 3 6 1009.5 1009.3 0.2
19/11:30am 29.9 34.3 24.5 73 3.8 WSW 9 17 5 9 1009.7 1009.5 0.2
19/11:00am 29.4 33.8 23.8 72 3.9 WSW 7 13 4 7 1009.9 1009.7 0.2
19/10:30am 29.3 33.8 23.7 72 3.9 W 6 11 3 6 1010.0 1009.8 0.2
19/10:00am 28.9 33.3 24.5 77 3.1 WNW 9 13 5 7 1010.1 1009.9 0.2
19/09:30am 27.8 32.6 24.4 82 2.4 NW 7 13 4 7 1010.2 1010.0 0.0
19/09:00am 27.1 31.9 24.4 85 1.9 WNW 7 9 4 5 1010.1 1009.9 -
19/08:30am 26.6 31.4 24.1 86 1.7 WNW 6 9 3 5 1010.0 1009.8 -
19/08:00am 26.3 31.6 24.3 89 1.4 NNW 4 6 2 3 1010.0 1009.8 -
19/07:30am 26.1 31.4 24.3 90 1.2 NW 4 7 2 4 1009.8 1009.6 -
19/07:00am 25.4 30.2 24.2 93 0.8 WNW 6 9 3 5 1009.7 1009.5 -
19/06:30am 25.1 30.0 24.4 96 0.5 NW 6 9 3 5 1009.5 1009.3 -
19/06:00am 24.9 29.6 24.0 95 0.6 NW 6 9 3 5 1009.3 1009.1 -
19/05:30am 24.9 29.4 24.0 95 0.6 WNW 7 11 4 6 1009.2 1009.0 -
19/05:00am 25.0 29.5 24.0 94 0.7 W 7 13 4 7 1009.1 1008.9 -
19/04:30am 25.0 29.8 24.1 95 0.6 W 6 7 3 4 1008.6 1008.4 -
19/04:00am 25.1 29.9 24.2 95 0.6 WSW 6 7 3 4 1008.7 1008.5 -
19/03:30am 25.2 31.0 24.5 96 0.5 WSW 2 6 1 3 1009.0 1008.8 -
19/03:00am 25.3 31.5 24.6 96 0.5 CALM 0 0 0 0 1009.2 1009.0 0.2
19/02:30am 25.4 31.7 24.7 96 0.5 CALM 0 0 0 0 1009.5 1009.3 -
19/02:00am 25.3 31.5 24.6 96 0.5 CALM 0 0 0 0 1009.8 1009.6 -
19/01:30am 25.3 31.5 24.6 96 0.5 CALM 0 0 0 0 1010.3 1010.1 -
19/01:00am 25.4 31.7 24.7 96 0.5 CALM 0 0 0 0 1010.5 1010.3 -
19/12:30am 25.4 31.7 24.7 96 0.5 CALM 0 0 0 0 1011.0 1010.8 -
19/12:00am 25.4 31.3 24.7 96 0.5 E 2 4 1 2 1011.3 1011.1 -
 
Date/Time
CST
Temp
°C
App
Temp
°C
Dew
Point
°C
Rel
Hum
%
Delta-T
°C
Wind Press
QNH
hPa
Press
MSL
hPa
Rain since
9am
mm
Dir  Spd
km/h
Gust
km/h
Spd
kts
Gust
kts
18/11:30pm 25.5 31.8 24.8 96 0.5 CALM 0 0 0 0 1011.6 1011.4 -
18/11:00pm 25.5 31.8 24.8 96 0.5 CALM 0 4 0 2 1011.7 1011.5 -
18/10:30pm 25.4 31.7 24.7 96 0.5 CALM 0 0 0 0 1011.5 1011.3 -
18/10:00pm 25.4 31.7 24.7 96 0.5 CALM 0 0 0 0 1011.2 1011.0 -
18/09:30pm 25.1 30.7 24.2 95 0.6 SW 2 6 1 3 1010.8 1010.6 -
18/09:00pm 25.0 31.0 24.3 96 0.5 CALM 0 0 0 0 1010.8 1010.6 5.0
18/08:30pm 24.6 29.6 23.9 96 0.5 WNW 4 6 2 3 1010.5 1010.3 -
18/08:00pm 24.6 28.9 23.6 94 0.7 WNW 7 13 4 7 1010.1 1009.9 -
18/07:30pm 25.1 28.4 23.9 93 0.8 WNW 13 22 7 12 1010.3 1010.1 -
18/07:00pm 27.7 31.8 23.9 80 2.6 WNW 9 15 5 8 1009.6 1009.4 -
18/06:30pm 28.0 32.0 23.8 78 2.9 NW 9 19 5 10 1009.0 1008.8 -
18/06:00pm 28.2 33.3 24.6 81 2.5 NW 6 9 3 5 1008.5 1008.3 -
18/05:30pm 28.1 32.7 24.7 82 2.4 NW 9 15 5 8 1008.1 1007.9 -
18/05:00pm 29.1 33.2 24.0 74 3.5 N 9 17 5 9 1007.8 1007.6 -
18/04:30pm 29.6 34.6 25.4 78 3.0 NNW 9 13 5 7 1007.7 1007.5 -
18/04:00pm 29.2 33.4 24.7 77 3.1 NNW 11 19 6 10 1007.5 1007.3 -
18/03:30pm 32.5 35.9 24.0 61 5.9 NW 13 24 7 13 1007.4 1007.2 -
18/03:00pm 32.0 34.4 23.0 59 6.2 NNW 15 24 8 13 1007.3 1007.1 -
18/02:30pm 33.0 35.3 22.7 54 7.1 NNW 15 22 8 12 1007.3 1007.1 -
18/02:00pm 32.5 36.1 23.7 59 6.1 N 11 20 6 11 1007.8 1007.6 -
18/01:30pm 32.3 35.3 22.7 57 6.6 NNW 11 19 6 10 1007.7 1007.5 -
18/01:00pm 32.8 36.1 23.2 57 6.6 NNW 11 20 6 11 1008.1 1007.9 -
18/12:30pm 32.5 36.1 23.7 59 6.1 NW 11 19 6 10 1008.5 1008.3 -
18/12:00pm 32.1 36.0 23.6 60 5.9 NW 9 13 5 7 1009.0 1008.8 -
18/11:30am 32.2 36.5 24.3 63 5.5 N 9 15 5 8 1009.3 1009.1 -
18/10:30am 31.5 36.2 23.9 64 5.3 NNW 6 15 3 8 1009.8 1009.6 0.2
18/10:00am 30.0 35.6 24.9 74 3.6 NNW 4 6 2 3 1010.3 1010.1 0.2
18/09:30am 29.9 35.7 24.5 73 3.8 NW 2 7 1 4 1010.6 1010.4 0.0
18/09:00am 29.7 36.0 25.9 80 2.7 NNE 4 7 2 4 1010.6 1010.4 0.4
18/08:30am 28.6 34.8 25.8 85 2.0 NNE 4 7 2 4 1010.3 1010.1 0.4
18/08:00am 27.0 33.2 25.8 93 0.8 NNE 4 4 2 2 1010.3 1010.1 0.4
18/07:30am 26.4 33.3 25.7 96 0.5 CALM 0 4 0 2 1010.2 1010.0 0.4
18/07:00am 25.8 32.4 25.3 97 0.3 CALM 0 2 0 1 1009.7 1009.5 0.4
18/06:30am 25.7 32.2 25.0 96 0.5 CALM 0 0 0 0 1009.4 1009.2 0.4
18/06:00am 25.6 32.0 24.9 96 0.5 CALM 0 0 0 0 1008.8 1008.6 0.4
18/05:30am 25.7 32.2 25.0 96 0.5 CALM 0 0 0 0 1008.2 1008.0 0.4
18/05:00am 25.8 32.2 24.9 95 0.6 CALM 0 0 0 0 1007.8 1007.6 0.4
18/04:30am 25.8 32.2 24.9 95 0.6 CALM 0 0 0 0 1007.7 1007.5 0.4
18/04:00am 25.8 32.2 24.9 95 0.6 CALM 0 0 0 0 1007.9 1007.7 0.4
18/03:30am 26.0 32.5 25.0 94 0.7 CALM 0 0 0 0 1007.9 1007.7 0.4
18/03:00am 26.0 32.5 25.0 94 0.7 CALM 0 0 0 0 1007.8 1007.6 0.4
18/02:30am 26.2 32.8 25.2 94 0.7 CALM 0 4 0 2 1007.8 1007.6 0.4
18/02:00am 26.2 32.3 25.0 93 0.8 NW 2 4 1 2 1008.1 1007.9 0.4
18/01:30am 26.3 31.9 24.9 92 1.0 NNW 4 6 2 3 1008.3 1008.1 0.4
18/01:00am 26.3 32.2 25.3 94 0.7 NNW 4 6 2 3 1008.9 1008.7 0.4
18/12:30am 26.1 31.9 25.1 94 0.7 NNW 4 6 2 3 1009.1 1008.9 0.4
18/12:00am 26.2 32.7 25.0 93 0.8 CALM 0 0 0 0 1009.4 1009.2 0.4
 
Date/Time
CST
Temp
°C
App
Temp
°C
Dew
Point
°C
Rel
Hum
%
Delta-T
°C
Wind Press
QNH
hPa
Press
MSL
hPa
Rain since
9am
mm
Dir  Spd
km/h
Gust
km/h
Spd
kts
Gust
kts
17/11:30pm 26.5 33.1 25.3 93 0.8 CALM 0 0 0 0 1009.5 1009.3 0.4
17/11:00pm 26.4 32.7 24.8 91 1.1 CALM 0 0 0 0 1009.6 1009.4 0.4
17/10:30pm 26.6 32.9 24.8 90 1.3 CALM 0 0 0 0 1009.6 1009.4 0.4
17/10:00pm 26.5 32.0 24.7 90 1.3 W 4 6 2 3 1009.5 1009.3 0.4
17/09:30pm 26.4 32.1 25.0 92 1.0 W 4 6 2 3 1009.4 1009.2 0.4
17/09:00pm 26.3 31.6 24.3 89 1.4 WNW 4 6 2 3 1009.4 1009.2 0.4
17/08:30pm 26.5 30.2 23.2 82 2.3 W 9 17 5 9 1009.1 1008.9 0.2
17/08:00pm 29.2 33.8 24.1 74 3.5 NW 7 9 4 5 1008.6 1008.4 0.0
17/07:30pm 29.6 33.6 23.8 71 4.0 NW 9 13 5 7 1007.9 1007.7 0.0
17/07:00pm 30.6 34.3 23.3 65 5.0 NW 9 15 5 8 1007.4 1007.2 0.0
17/06:30pm 31.9 34.7 22.3 56 6.6 NW 11 17 6 9 1007.1 1006.9 0.0
17/06:00pm 33.1 36.1 21.9 51 7.6 NW 9 15 5 8 1006.5 1006.3 0.0
17/05:30pm 33.5 35.3 19.6 44 9.2 NW 9 15 5 8 1006.0 1005.8 0.0
17/05:00pm 33.3 33.4 16.6 36 10.6 WNW 11 20 6 11 1005.9 1005.7 0.0
17/04:30pm 33.2 34.3 19.7 45 8.9 NW 13 20 7 11 1005.8 1005.6 0.0
17/04:00pm 33.2 35.1 21.4 50 8.0 NW 13 20 7 11 1005.8 1005.6 0.0
17/03:30pm 33.0 35.0 21.5 50 7.8 WNW 13 22 7 12 1005.9 1005.7 0.0
17/03:00pm 32.8 34.5 21.6 51 7.6 WNW 15 20 8 11 1006.4 1006.2 0.0
17/02:30pm 33.5 36.3 22.3 52 7.7 NW 11 17 6 9 1006.7 1006.5 0.0
17/02:00pm 33.1 35.7 21.9 51 7.6 NW 11 20 6 11 1007.0 1006.8 0.0
17/01:30pm 32.9 34.7 20.4 47 8.4 NW 11 17 6 9 1007.3 1007.1 0.0
17/01:00pm 32.8 35.4 22.0 53 7.4 NW 11 15 6 8 1007.4 1007.2 0.0
17/12:30pm 32.5 35.3 22.3 55 7.0 NW 11 17 6 9 1007.6 1007.4 0.0
17/12:00pm 32.2 36.4 23.4 59 6.1 WNW 7 15 4 8 1007.9 1007.7 0.0
17/11:30am 32.0 36.3 24.3 63 5.4 NW 9 15 5 8 1008.4 1008.2 0.0
17/11:00am 31.6 35.7 24.0 64 5.3 WNW 9 15 5 8 1008.7 1008.5 0.0
17/10:30am 31.0 34.8 24.1 66 4.8 NW 11 17 6 9 1008.9 1008.7 0.0
17/10:00am 30.3 35.1 24.4 70 4.1 NNW 7 13 4 7 1009.0 1008.8 0.0
17/09:30am 29.9 35.1 24.8 74 3.6 NNW 6 9 3 5 1008.8 1008.6 0.0
17/09:00am 28.7 33.8 24.7 79 2.8 N 6 7 3 4 1008.8 1008.6 10.2
17/08:30am 27.6 33.2 24.8 85 2.0 NNE 4 6 2 3 1008.9 1008.7 10.2
17/08:00am 26.3 32.2 24.7 91 1.1 NNE 2 4 1 2 1008.8 1008.6 10.2
17/07:30am 25.2 31.3 24.5 96 0.5 CALM 0 0 0 0 1008.5 1008.3 10.2
17/07:00am 24.7 30.7 24.2 97 0.3 CALM 0 0 0 0 1007.9 1007.7 10.2
17/06:30am 24.7 30.5 24.0 96 0.5 CALM 0 0 0 0 1007.5 1007.3 10.2
17/06:00am 24.6 30.4 23.9 96 0.5 CALM 0 2 0 1 1007.3 1007.1 10.2
17/05:30am 24.8 30.3 24.1 96 0.5 SE 2 2 1 1 1007.0 1006.8 10.2
17/05:00am 24.7 30.5 24.0 96 0.5 CALM 0 2 0 1 1006.8 1006.6 10.2
17/04:30am 24.8 30.7 24.1 96 0.5 CALM 0 0 0 0 1006.6 1006.4 10.2
17/04:00am 24.8 30.7 24.1 96 0.5 CALM 0 0 0 0 1006.5 1006.3 10.2
17/03:30am 24.8 30.7 24.1 96 0.5 CALM 0 0 0 0 1006.6 1006.4 10.2
17/03:00am 24.8 30.7 24.1 96 0.5 CALM 0 0 0 0 1006.6 1006.4 10.2
17/02:30am 24.8 30.2 23.9 95 0.6 E 2 4 1 2 1006.8 1006.6 10.2
17/02:00am 24.9 30.9 24.2 96 0.5 CALM 0 0 0 0 1006.8 1006.6 10.2
17/01:30am 25.0 31.0 24.3 96 0.5 CALM 0 0 0 0 1007.2 1007.0 10.2
17/01:00am 25.1 31.2 24.4 96 0.5 CALM 0 0 0 0 1007.4 1007.2 10.2
17/12:30am 25.1 31.2 24.4 96 0.5 CALM 0 0 0 0 1007.6 1007.4 10.2
17/12:00am 25.2 31.3 24.5 96 0.5 CALM 0 0 0 0 1007.9 1007.7 10.2
 
Date/Time
CST
Temp
°C
App
Temp
°C
Dew
Point
°C
Rel
Hum
%
Delta-T
°C
Wind Press
QNH
hPa
Press
MSL
hPa
Rain since
9am
mm
Dir  Spd
km/h
Gust
km/h
Spd
kts
Gust
kts
16/11:30pm 25.1 31.1 24.2 95 0.6 CALM 0 0 0 0 1008.0 1007.8 10.2
16/11:00pm 25.2 31.2 24.3 95 0.6 CALM 0 0 0 0 1008.0 1007.8 10.2
16/10:30pm 25.2 31.0 24.0 93 0.8 CALM 0 0 0 0 1007.8 1007.6 10.2
16/10:00pm 25.5 31.5 24.3 93 0.8 CALM 0 2 0 1 1007.6 1007.4 10.2
16/09:30pm 25.4 30.8 23.8 91 1.1 SW 2 4 1 2 1007.5 1007.3 10.2
16/09:00pm 25.6 30.9 24.4 93 0.8 WSW 4 4 2 2 1007.3 1007.1 10.2
16/08:30pm 25.6 31.6 24.2 92 1.0 CALM 0 2 0 1 1006.9 1006.7 10.2
16/08:00pm 25.8 31.3 24.0 90 1.2 SSW 2 4 1 2 1006.7 1006.5 10.2
16/07:30pm 25.9 31.7 24.5 92 1.0 SSW 2 4 1 2 1006.7 1006.5 10.2
16/07:00pm 26.4 32.9 25.0 92 1.0 CALM 0 0 0 0 1006.6 1006.4 10.2
16/06:30pm 26.5 32.5 24.9 91 1.1 SW 2 4 1 2 1006.5 1006.3 10.2

Other Formats:

Comma delimited format used in spreadsheet applications
http://www.bom.gov.au/fwo/IDD60801/IDD60801.94105.axf

JavaScript Object Notation format (JSON) in row-major order
http://www.bom.gov.au/fwo/IDD60801/IDD60801.94105.json